createdAt,value
2018-02-13T00:00:47.313Z,98434.86
2018-02-13T00:03:14.758Z,98441.00
2018-02-13T00:05:42.201Z,98441.14
2018-02-13T00:08:10.292Z,98440.24
2018-02-13T00:10:37.745Z,98443.77
2018-02-13T00:13:05.187Z,98442.72
2018-02-13T00:15:33.541Z,98439.95
2018-02-13T00:18:00.996Z,98443.64
2018-02-13T00:20:28.455Z,98446.99
2018-02-13T00:23:01.188Z,98427.48
2018-02-13T00:25:28.722Z,98438.94
2018-02-13T00:27:56.168Z,98438.77
2018-02-13T00:30:24.191Z,98439.52
2018-02-13T00:32:51.633Z,98444.30
2018-02-13T00:35:19.096Z,98426.25
2018-02-13T00:37:47.194Z,98433.76
2018-02-13T00:40:14.652Z,98434.44
2018-02-13T00:42:42.110Z,98431.14
2018-02-13T00:45:09.870Z,98437.69
2018-02-13T00:47:37.333Z,98439.37
2018-02-13T00:50:04.789Z,98436.06
2018-02-13T00:52:32.552Z,98442.23
2018-02-13T00:55:00.010Z,98439.01
2018-02-13T00:57:28.046Z,98435.62
2018-02-13T00:59:55.857Z,98425.08
2018-02-13T01:02:23.306Z,98432.06
2018-02-13T01:04:50.761Z,98429.10
2018-02-13T01:07:18.536Z,98434.36
2018-02-13T01:09:45.993Z,98428.56
2018-02-13T01:12:13.446Z,98437.68
2018-02-13T01:14:41.538Z,98434.59
2018-02-13T01:17:08.993Z,98436.04
2018-02-13T01:19:36.481Z,98432.09
2018-02-13T01:22:04.229Z,98430.97
2018-02-13T01:24:31.700Z,98424.84
2018-02-13T01:26:59.147Z,98426.41
2018-02-13T01:29:26.925Z,98428.08
2018-02-13T01:31:54.379Z,98425.34
2018-02-13T01:34:21.837Z,98426.98
2018-02-13T01:36:49.529Z,98425.05
2018-02-13T01:39:17.013Z,98426.50
2018-02-13T01:41:44.465Z,98423.47
2018-02-13T01:44:12.300Z,98428.14
2018-02-13T01:46:39.764Z,98422.55
2018-02-13T01:49:07.215Z,98423.74
2018-02-13T01:51:34.973Z,98429.00
2018-02-13T01:54:02.446Z,98428.91
2018-02-13T01:56:29.889Z,98435.38
2018-02-13T01:58:57.662Z,98431.53
2018-02-13T02:01:25.118Z,98428.21
2018-02-13T02:03:53.257Z,98433.22
2018-02-13T02:06:21.273Z,98424.77
2018-02-13T02:08:48.728Z,98435.82
2018-02-13T02:11:16.180Z,98435.83
2018-02-13T02:13:43.933Z,98432.78
2018-02-13T02:16:11.381Z,98436.39
2018-02-13T02:18:38.834Z,98428.80
2018-02-13T02:21:06.654Z,98426.00
2018-02-13T02:23:34.112Z,98427.62
2018-02-13T02:26:01.564Z,98429.35
2018-02-13T02:28:29.293Z,98423.13
2018-02-13T02:30:56.752Z,98425.88
2018-02-13T02:33:24.204Z,98428.63
2018-02-13T02:35:52.025Z,98423.80
2018-02-13T02:38:19.480Z,98423.34
2018-02-13T02:40:46.937Z,98422.06
2018-02-13T02:43:14.713Z,98423.11
2018-02-13T02:45:42.172Z,98417.75
2018-02-13T02:48:09.650Z,98420.42
2018-02-13T02:50:37.308Z,98421.94
2018-02-13T02:53:04.778Z,98419.56
2018-02-13T02:55:32.237Z,98411.45
2018-02-13T02:58:00.082Z,98413.83
2018-02-13T03:00:27.540Z,98420.10
2018-02-13T03:02:54.999Z,98415.33
2018-02-13T03:05:23.682Z,98405.14
2018-02-13T03:07:51.141Z,98410.77
2018-02-13T03:10:18.593Z,98403.28
2018-02-13T03:12:46.373Z,98402.28
2018-02-13T03:15:13.836Z,98404.21
2018-02-13T03:17:41.292Z,98405.91
2018-02-13T03:20:09.365Z,98404.52
2018-02-13T03:22:36.822Z,98402.92
2018-02-13T03:25:04.280Z,98399.41
2018-02-13T03:27:31.896Z,98404.94
2018-02-13T03:29:59.364Z,98407.69
2018-02-13T03:32:26.825Z,98406.09
2018-02-13T03:34:54.744Z,98411.13
2018-02-13T03:37:22.215Z,98408.48
2018-02-13T03:39:49.677Z,98403.00
2018-02-13T03:42:17.434Z,98412.14
2018-02-13T03:44:44.893Z,98407.38
2018-02-13T03:47:12.341Z,98403.66
2018-02-13T03:49:40.120Z,98404.46
2018-02-13T03:52:07.576Z,98402.50
2018-02-13T03:54:35.030Z,98404.36
2018-02-13T03:57:02.804Z,98407.88
2018-02-13T03:59:30.268Z,98404.94
2018-02-13T04:01:57.725Z,98411.41
2018-02-13T04:04:25.516Z,98412.63
2018-02-13T04:06:54.857Z,98411.41
2018-02-13T04:09:22.315Z,98417.08
2018-02-13T04:11:50.334Z,98410.98
2018-02-13T04:14:17.785Z,98411.47
2018-02-13T04:16:45.248Z,98404.23
2018-02-13T04:19:13.321Z,98412.53
2018-02-13T04:21:40.777Z,98409.95
2018-02-13T04:24:08.253Z,98411.56
2018-02-13T04:26:36.008Z,98413.77
2018-02-13T04:29:03.475Z,98410.34
2018-02-13T04:31:30.938Z,98411.12
2018-02-13T04:33:58.685Z,98410.02
2018-02-13T04:36:26.142Z,98414.70
2018-02-13T04:38:53.592Z,98411.45
2018-02-13T04:41:21.394Z,98405.48
2018-02-13T04:43:48.847Z,98410.71
2018-02-13T04:46:16.304Z,98410.73
2018-02-13T04:48:44.067Z,98408.37
2018-02-13T04:51:11.521Z,98404.08
2018-02-13T04:53:38.968Z,98401.29
2018-02-13T04:56:06.755Z,98406.89
2018-02-13T04:58:34.216Z,98404.34
2018-02-13T05:01:01.687Z,98411.88
2018-02-13T05:03:29.744Z,98407.66
2018-02-13T05:05:57.202Z,98403.46
2018-02-13T05:08:25.362Z,98406.29
2018-02-13T05:10:53.361Z,98411.20
2018-02-13T05:13:20.821Z,98405.69
2018-02-13T05:15:48.272Z,98402.20
2018-02-13T05:18:16.048Z,98406.56
2018-02-13T05:20:43.501Z,98401.00
2018-02-13T05:23:10.952Z,98404.80
2018-02-13T05:25:38.738Z,98405.71
2018-02-13T05:28:06.202Z,98405.94
2018-02-13T05:30:33.661Z,98408.20
2018-02-13T05:33:01.426Z,98407.92
2018-02-13T05:35:28.890Z,98409.44
2018-02-13T05:37:56.368Z,98416.11
2018-02-13T05:40:24.409Z,98415.51
2018-02-13T05:42:51.865Z,98418.64
2018-02-13T05:45:19.312Z,98418.26
2018-02-13T05:47:47.071Z,98427.55
2018-02-13T05:50:14.522Z,98425.09
2018-02-13T05:52:41.971Z,98429.59
2018-02-13T05:55:09.800Z,98431.20
2018-02-13T05:57:37.261Z,98427.89
2018-02-13T06:00:04.737Z,98431.80
2018-02-13T06:02:32.477Z,98427.52
2018-02-13T06:04:59.933Z,98428.48
2018-02-13T06:07:27.400Z,98432.16
2018-02-13T06:09:57.074Z,98434.92
2018-02-13T06:12:24.528Z,98429.83
2018-02-13T06:14:51.979Z,98428.84
2018-02-13T06:17:19.862Z,98420.92
2018-02-13T06:19:47.317Z,98432.05
2018-02-13T06:22:14.769Z,98432.77
2018-02-13T06:24:42.692Z,98436.76
2018-02-13T06:27:10.156Z,98429.31
2018-02-13T06:29:37.613Z,98426.67
2018-02-13T06:32:05.680Z,98427.22
2018-02-13T06:34:33.133Z,98430.10
2018-02-13T06:37:00.584Z,98428.34
2018-02-13T06:39:28.360Z,98431.39
2018-02-13T06:41:55.851Z,98439.97
2018-02-13T06:44:23.302Z,98447.03
2018-02-13T06:46:51.048Z,98443.98
2018-02-13T06:49:18.492Z,98444.38
2018-02-13T06:51:45.944Z,98445.66
2018-02-13T06:54:13.737Z,98443.16
2018-02-13T06:56:41.190Z,98453.69
2018-02-13T06:59:08.642Z,98451.94
2018-02-13T07:01:36.449Z,98448.70
2018-02-13T07:04:03.896Z,98455.83
2018-02-13T07:06:31.353Z,98456.86
2018-02-13T07:08:58.940Z,98458.06
2018-02-13T07:11:28.789Z,98452.91
2018-02-13T07:13:56.241Z,98452.30
2018-02-13T07:16:23.920Z,98451.53
2018-02-13T07:18:51.368Z,98456.50
2018-02-13T07:21:18.824Z,98456.69
2018-02-13T07:23:46.649Z,98457.08
2018-02-13T07:26:14.101Z,98460.22
2018-02-13T07:28:41.544Z,98459.09
2018-02-13T07:31:09.268Z,98457.80
2018-02-13T07:33:36.729Z,98456.84
2018-02-13T07:36:04.194Z,98457.98
2018-02-13T07:38:32.013Z,98461.45
2018-02-13T07:40:59.464Z,98451.73
2018-02-13T07:43:26.914Z,98455.41
2018-02-13T07:45:54.997Z,98453.88
2018-02-13T07:48:22.445Z,98448.84
2018-02-13T07:50:49.895Z,98460.50
2018-02-13T07:53:17.925Z,98452.91
2018-02-13T07:55:45.381Z,98448.74
2018-02-13T07:58:12.831Z,98446.72
2018-02-13T08:00:40.683Z,98453.27
2018-02-13T08:03:08.139Z,98446.28
2018-02-13T08:05:35.584Z,98445.03
2018-02-13T08:08:03.369Z,98439.41
2018-02-13T08:10:30.821Z,98438.89
2018-02-13T08:12:59.280Z,98441.27
2018-02-13T08:15:27.010Z,98443.66
2018-02-13T08:17:54.473Z,98438.11
2018-02-13T08:20:21.924Z,98439.67
2018-02-13T08:22:49.972Z,98437.19
2018-02-13T08:25:17.412Z,98438.34
2018-02-13T08:27:44.862Z,98442.93
2018-02-13T08:30:12.659Z,98441.13
2018-02-13T08:32:40.109Z,98443.98
2018-02-13T08:35:07.593Z,98442.27
2018-02-13T08:37:35.229Z,98446.91
2018-02-13T08:40:02.685Z,98438.73
2018-02-13T08:42:30.144Z,98441.70
2018-02-13T08:44:58.032Z,98444.57
2018-02-13T08:47:25.480Z,98442.15
2018-02-13T08:49:52.934Z,98437.47
2018-02-13T08:52:21.030Z,98434.22
2018-02-13T08:54:48.472Z,98424.69
2018-02-13T08:57:15.924Z,98426.98
2018-02-13T08:59:43.710Z,98426.31
2018-02-13T09:02:11.156Z,98423.73
2018-02-13T09:04:38.608Z,98416.77
2018-02-13T09:07:07.016Z,98426.50
2018-02-13T09:09:34.465Z,98424.44
2018-02-13T09:12:01.915Z,98423.31
2018-02-13T09:14:30.018Z,98423.72
2018-02-13T09:16:57.495Z,98424.51
2018-02-13T09:19:24.943Z,98406.06
2018-02-13T09:21:52.701Z,98419.61
2018-02-13T09:24:20.143Z,98413.42
2018-02-13T09:26:47.597Z,98411.24
2018-02-13T09:29:15.385Z,98412.98
2018-02-13T09:31:42.840Z,98409.53
2018-02-13T09:34:10.299Z,98413.60
2018-02-13T09:36:38.371Z,98405.84
2018-02-13T09:39:05.824Z,98403.00
2018-02-13T09:41:33.276Z,98400.77
2018-02-13T09:44:01.062Z,98396.08
2018-02-13T09:46:28.509Z,98386.13
2018-02-13T09:48:55.957Z,98388.69
2018-02-13T09:51:23.756Z,98380.70
2018-02-13T09:53:51.201Z,98379.61
2018-02-13T09:56:18.660Z,98373.43
2018-02-13T09:58:46.431Z,98376.63
2018-02-13T10:01:13.890Z,98369.02
2018-02-13T10:03:41.340Z,98369.34
2018-02-13T10:06:09.130Z,98360.73
2018-02-13T10:08:36.569Z,98358.57
2018-02-13T10:11:04.017Z,98358.12
2018-02-13T10:13:31.640Z,98352.98
2018-02-13T10:15:59.948Z,98356.48
2018-02-13T10:18:27.715Z,98356.81
2018-02-13T10:20:55.418Z,98351.97
2018-02-13T10:23:22.863Z,98349.92
2018-02-13T10:25:50.303Z,98341.78
2018-02-13T10:28:18.110Z,98343.52
2018-02-13T10:30:45.552Z,98346.70
2018-02-13T10:33:12.997Z,98340.59
2018-02-13T10:35:40.729Z,98341.83
2018-02-13T10:38:08.189Z,98337.64
2018-02-13T10:40:35.630Z,98330.31
2018-02-13T10:43:03.749Z,98333.50
2018-02-13T10:45:31.215Z,98333.06
2018-02-13T10:47:58.658Z,98323.88
2018-02-13T10:50:26.485Z,98327.97
2018-02-13T10:52:53.932Z,98325.95
2018-02-13T10:55:21.379Z,98317.34
2018-02-13T10:57:49.016Z,98315.88
2018-02-13T11:00:16.463Z,98313.98
2018-02-13T11:02:43.903Z,98313.57
2018-02-13T11:05:11.545Z,98312.16
2018-02-13T11:07:38.980Z,98308.56
2018-02-13T11:10:06.420Z,98308.34
2018-02-13T11:12:34.152Z,98300.31
2018-02-13T11:15:01.593Z,98295.98
2018-02-13T11:17:29.688Z,98297.52
2018-02-13T11:19:57.308Z,98289.96
2018-02-13T11:22:24.748Z,98289.98
2018-02-13T11:24:52.194Z,98282.87
2018-02-13T11:27:20.005Z,98283.41
2018-02-13T11:29:47.453Z,98270.22
2018-02-13T11:32:14.901Z,98270.36
2018-02-13T11:34:42.726Z,98266.45
2018-02-13T11:37:10.169Z,98258.30
2018-02-13T11:39:37.608Z,98260.50
2018-02-13T11:42:05.536Z,98264.07
2018-02-13T11:44:33.025Z,98255.94
2018-02-13T11:47:00.443Z,98246.45
2018-02-13T11:49:28.276Z,98245.56
2018-02-13T11:51:55.716Z,98238.81
2018-02-13T11:54:23.161Z,98238.80
2018-02-13T11:56:50.988Z,98238.70
2018-02-13T11:59:18.432Z,98233.19
2018-02-13T12:01:45.870Z,98233.31
2018-02-13T12:04:13.666Z,98231.41
2018-02-13T12:06:41.113Z,98230.30
2018-02-13T12:09:08.557Z,98219.81
2018-02-13T12:11:36.341Z,98219.86
2018-02-13T12:14:03.872Z,98212.86
2018-02-13T12:16:31.319Z,98210.92
2018-02-13T12:18:59.946Z,98204.06
2018-02-13T12:21:27.393Z,98202.66
2018-02-13T12:23:54.837Z,98207.06
2018-02-13T12:26:22.637Z,98204.00
2018-02-13T12:28:50.077Z,98194.84
2018-02-13T12:31:17.526Z,98190.92
2018-02-13T12:33:45.326Z,98184.31
2018-02-13T12:36:12.764Z,98180.41
2018-02-13T12:38:40.209Z,98172.95
2018-02-13T12:41:08.016Z,98168.64
2018-02-13T12:43:35.457Z,98163.99
2018-02-13T12:46:02.911Z,98163.62
2018-02-13T12:48:30.693Z,98156.61
2018-02-13T12:50:58.163Z,98158.67
2018-02-13T12:53:25.613Z,98161.31
2018-02-13T12:55:54.306Z,98165.95
2018-02-13T12:58:21.755Z,98153.94
2018-02-13T13:00:49.201Z,98149.83
2018-02-13T13:03:17.016Z,98151.19
2018-02-13T13:05:44.461Z,98151.92
2018-02-13T13:08:11.901Z,98145.21
2018-02-13T13:10:40.299Z,98142.86
2018-02-13T13:13:07.753Z,98133.86
2018-02-13T13:15:35.202Z,98133.80
2018-02-13T13:18:03.294Z,98121.02
2018-02-13T13:20:31.447Z,98116.29
2018-02-13T13:22:58.908Z,98109.69
2018-02-13T13:25:26.904Z,98105.97
2018-02-13T13:27:54.352Z,98103.73
2018-02-13T13:30:21.816Z,98100.72
2018-02-13T13:32:49.588Z,98104.08
2018-02-13T13:35:17.036Z,98100.63
2018-02-13T13:37:44.477Z,98095.45
2018-02-13T13:40:12.203Z,98103.50
2018-02-13T13:42:39.640Z,98101.19
2018-02-13T13:45:07.097Z,98092.72
2018-02-13T13:47:34.968Z,98093.16
2018-02-13T13:50:02.436Z,98085.09
2018-02-13T13:52:29.888Z,98091.06
2018-02-13T13:54:57.645Z,98090.30
2018-02-13T13:57:25.081Z,98086.55
2018-02-13T13:59:52.526Z,98088.28
2018-02-13T14:02:20.629Z,98078.41
2018-02-13T14:04:48.077Z,98077.09
2018-02-13T14:07:15.528Z,98083.11
2018-02-13T14:09:43.329Z,98077.45
2018-02-13T14:12:10.765Z,98081.13
2018-02-13T14:14:38.208Z,98078.39
2018-02-13T14:17:07.907Z,98081.09
2018-02-13T14:19:35.356Z,98076.00
2018-02-13T14:22:03.764Z,98068.16
2018-02-13T14:24:31.490Z,98070.14
2018-02-13T14:26:59.305Z,98078.36
2018-02-13T14:29:26.756Z,98069.52
2018-02-13T14:31:54.583Z,98068.18
2018-02-13T14:34:22.021Z,98066.52
2018-02-13T14:36:49.460Z,98068.98
2018-02-13T14:39:17.161Z,98062.41
2018-02-13T14:41:44.603Z,98068.11
2018-02-13T14:44:12.057Z,98062.14
2018-02-13T14:46:39.828Z,98056.94
2018-02-13T14:49:07.275Z,98061.52
2018-02-13T14:51:34.711Z,98062.42
2018-02-13T14:54:02.474Z,98061.48
2018-02-13T14:56:29.921Z,98062.77
2018-02-13T14:58:57.369Z,98058.09
2018-02-13T15:01:25.212Z,98059.14
2018-02-13T15:03:52.656Z,98056.97
2018-02-13T15:06:20.091Z,98063.38
2018-02-13T15:08:47.805Z,98061.67
2018-02-13T15:11:15.249Z,98061.78
2018-02-13T15:13:42.696Z,98061.80
2018-02-13T15:16:10.890Z,98055.30
2018-02-13T15:18:39.140Z,98063.40
2018-02-13T15:21:06.584Z,98061.83
2018-02-13T15:23:36.349Z,98059.57
2018-02-13T15:26:03.784Z,98065.53
2018-02-13T15:28:31.324Z,98068.09
2018-02-13T15:30:59.032Z,98067.14
2018-02-13T15:33:26.483Z,98062.68
2018-02-13T15:35:53.932Z,98062.17
2018-02-13T15:38:21.712Z,98063.27
2018-02-13T15:40:49.170Z,98060.41
2018-02-13T15:43:16.632Z,98059.44
2018-02-13T15:45:44.396Z,98057.41
2018-02-13T15:48:11.843Z,98056.81
2018-02-13T15:50:39.292Z,98057.69
2018-02-13T15:53:07.088Z,98054.16
2018-02-13T15:55:34.547Z,98051.82
2018-02-13T15:58:01.989Z,98047.84
2018-02-13T16:00:29.684Z,98048.15
2018-02-13T16:02:57.132Z,98048.52
2018-02-13T16:05:24.576Z,98051.89
2018-02-13T16:07:52.460Z,98047.61
2018-02-13T16:10:19.900Z,98045.57
2018-02-13T16:12:47.394Z,98040.64
2018-02-13T16:15:15.146Z,98047.08
2018-02-13T16:17:42.600Z,98042.61
2018-02-13T16:20:10.063Z,98038.06
2018-02-13T16:22:38.148Z,98049.55
2018-02-13T16:25:06.284Z,98041.63
2018-02-13T16:27:33.721Z,98039.42
2018-02-13T16:30:01.443Z,98041.36
2018-02-13T16:32:28.900Z,98044.86
2018-02-13T16:34:56.341Z,98053.23
2018-02-13T16:37:24.136Z,98046.35
2018-02-13T16:39:51.641Z,98040.73
2018-02-13T16:42:19.112Z,98044.14
2018-02-13T16:44:47.134Z,98047.80
2018-02-13T16:47:14.570Z,98039.83
2018-02-13T16:49:42.005Z,98042.73
2018-02-13T16:52:09.768Z,98037.44
2018-02-13T16:54:37.225Z,98042.55
2018-02-13T16:57:04.674Z,98037.13
2018-02-13T16:59:32.507Z,98033.72
2018-02-13T17:01:59.952Z,98032.67
2018-02-13T17:04:27.403Z,98035.19
2018-02-13T17:06:55.508Z,98039.60
2018-02-13T17:09:22.964Z,98037.28
2018-02-13T17:11:51.132Z,98037.36
2018-02-13T17:14:18.820Z,98038.19
2018-02-13T17:16:46.273Z,98028.19
2018-02-13T17:19:13.711Z,98035.72
2018-02-13T17:21:42.407Z,98040.57
2018-02-13T17:24:09.848Z,98034.03
2018-02-13T17:26:38.009Z,98037.02
2018-02-13T17:29:05.766Z,98038.88
2018-02-13T17:31:33.228Z,98035.08
2018-02-13T17:34:00.684Z,98041.66
2018-02-13T17:36:28.605Z,98042.14
2018-02-13T17:38:56.058Z,98036.59
2018-02-13T17:41:23.509Z,98041.53
2018-02-13T17:43:51.379Z,98039.19
2018-02-13T17:46:19.475Z,98039.93
2018-02-13T17:48:46.950Z,98039.55
2018-02-13T17:51:14.687Z,98041.81
2018-02-13T17:53:42.132Z,98043.44
2018-02-13T17:56:10.089Z,98038.38
2018-02-13T17:58:38.277Z,98037.77
2018-02-13T18:01:05.724Z,98036.65
2018-02-13T18:03:33.860Z,98027.66
2018-02-13T18:06:01.591Z,98034.50
2018-02-13T18:08:29.674Z,98031.33
2018-02-13T18:10:57.182Z,98032.70
2018-02-13T18:13:24.906Z,98029.84
2018-02-13T18:15:52.374Z,98027.30
2018-02-13T18:18:20.730Z,98027.13
2018-02-13T18:20:48.506Z,98020.84
2018-02-13T18:23:15.953Z,98023.12
2018-02-13T18:25:43.422Z,98031.42
2018-02-13T18:28:12.121Z,98023.64
2018-02-13T18:30:39.574Z,98026.77
2018-02-13T18:33:08.265Z,98024.92
2018-02-13T18:35:36.033Z,98024.33
2018-02-13T18:38:04.004Z,98026.15
2018-02-13T18:40:31.451Z,98022.72
2018-02-13T18:42:59.340Z,98024.45
2018-02-13T18:45:26.780Z,98024.19
2018-02-13T18:47:54.231Z,98024.33
2018-02-13T18:50:22.725Z,98028.34
2018-02-13T18:55:17.623Z,98023.91
2018-02-13T18:57:45.628Z,98028.64
2018-02-13T19:00:13.823Z,98028.02
2018-02-13T19:02:41.260Z,98028.42
2018-02-13T19:05:09.235Z,98036.97
2018-02-13T19:07:36.690Z,98035.88
2018-02-13T19:10:04.132Z,98038.36
2018-02-13T19:12:31.931Z,98029.83
2018-02-13T19:14:59.386Z,98030.61
2018-02-13T19:17:26.837Z,98039.06
2018-02-13T19:19:54.615Z,98039.13
2018-02-13T19:22:22.077Z,98038.98
2018-02-13T19:24:49.525Z,98041.14
2018-02-13T19:27:17.312Z,98037.97
2018-02-13T19:29:46.669Z,98036.27
2018-02-13T19:32:14.116Z,98034.20
2018-02-13T19:34:41.829Z,98040.92
2018-02-13T19:37:09.379Z,98043.08
2018-02-13T19:39:36.829Z,98038.44
2018-02-13T19:42:04.980Z,98037.48
2018-02-13T19:44:32.525Z,98038.51
2018-02-13T19:47:00.027Z,98033.86
2018-02-13T19:49:27.811Z,98032.66
2018-02-13T19:51:55.961Z,98029.36
2018-02-13T19:54:23.408Z,98028.59
2018-02-13T19:56:51.480Z,98027.77
2018-02-13T19:59:18.969Z,98031.22
2018-02-13T20:01:47.137Z,98024.44
2018-02-13T20:04:16.116Z,98020.88
2018-02-13T20:06:43.577Z,98013.22
2018-02-13T20:09:11.029Z,98015.89
2018-02-13T20:11:38.712Z,98013.67
2018-02-13T20:14:06.165Z,98001.23
2018-02-13T20:16:34.042Z,98017.94
2018-02-13T20:19:02.586Z,98017.73
2018-02-13T20:21:30.072Z,98020.36
2018-02-13T20:23:57.520Z,98016.95
2018-02-13T20:26:25.564Z,98020.63
2018-02-13T20:28:53.497Z,98016.97
2018-02-13T20:31:23.261Z,98019.98
2018-02-13T20:33:51.004Z,98022.63
2018-02-13T20:36:18.473Z,98021.48
2018-02-13T20:38:45.932Z,98014.80
2018-02-13T20:41:14.304Z,98016.52
2018-02-13T20:43:42.666Z,98012.79
2018-02-13T20:46:10.120Z,98009.52
2018-02-13T20:48:38.097Z,98015.04
2018-02-13T20:51:05.897Z,98017.66
2018-02-13T20:53:34.297Z,98015.03
2018-02-13T20:56:02.152Z,98017.51
2018-02-13T20:58:29.607Z,98013.40
2018-02-13T21:00:57.064Z,98011.38
2018-02-13T21:03:24.838Z,98011.34
2018-02-13T21:05:52.300Z,98016.31
2018-02-13T21:08:19.796Z,98014.51
2018-02-13T21:10:47.536Z,98017.44
2018-02-13T21:13:15.028Z,98015.97
2018-02-13T21:15:42.485Z,98011.80
2018-02-13T21:18:10.932Z,98013.45
2018-02-13T21:20:38.383Z,98013.48
2018-02-13T21:23:05.838Z,98008.25
2018-02-13T21:25:34.460Z,98009.16
2018-02-13T21:28:04.417Z,98005.79
2018-02-13T21:30:31.878Z,98001.14
2018-02-13T21:33:01.131Z,98001.91
2018-02-13T21:35:28.580Z,97996.79
2018-02-13T21:37:56.037Z,97990.46
2018-02-13T21:40:23.754Z,97990.51
2018-02-13T21:42:51.214Z,97989.55
2018-02-13T21:45:18.675Z,97989.30
2018-02-13T21:47:46.480Z,97991.64
2018-02-13T21:50:13.928Z,97987.62
2018-02-13T21:52:41.379Z,97981.09
2018-02-13T21:55:09.165Z,97984.38
2018-02-13T21:57:36.627Z,97981.22
2018-02-13T22:00:04.106Z,97987.79
2018-02-13T22:02:31.865Z,97986.55
2018-02-13T22:04:59.324Z,97984.00
2018-02-13T22:07:26.794Z,97984.86
2018-02-13T22:09:54.556Z,97980.63
2018-02-13T22:12:22.008Z,97981.64
2018-02-13T22:14:49.457Z,97979.50
2018-02-13T22:17:17.225Z,97983.69
2018-02-13T22:19:44.669Z,97982.56
2018-02-13T22:22:12.124Z,97989.60
2018-02-13T22:24:39.922Z,97983.93
2018-02-13T22:27:07.376Z,97986.50
2018-02-13T22:29:34.825Z,97981.10
2018-02-13T22:32:02.503Z,97990.38
2018-02-13T22:34:30.434Z,97991.20
2018-02-13T22:36:57.889Z,97988.16
2018-02-13T22:39:25.902Z,97983.52
2018-02-13T22:41:53.358Z,97985.70
2018-02-13T22:44:20.815Z,97980.82
2018-02-13T22:46:48.591Z,97982.99
2018-02-13T22:49:16.044Z,97981.75
2018-02-13T22:51:43.488Z,97983.98
2018-02-13T22:54:11.232Z,97985.09
2018-02-13T22:56:38.685Z,97990.49
2018-02-13T22:59:06.273Z,97979.34
2018-02-13T23:01:34.008Z,97977.73
2018-02-13T23:04:01.476Z,97983.72
2018-02-13T23:06:28.934Z,97977.47
2018-02-13T23:08:56.656Z,97974.03
2018-02-13T23:11:24.114Z,97973.42
2018-02-13T23:13:51.568Z,97969.98
2018-02-13T23:16:19.652Z,97966.69
2018-02-13T23:18:47.111Z,97967.63
2018-02-13T23:21:14.565Z,97972.47
2018-02-13T23:23:42.346Z,97971.63
2018-02-13T23:26:09.812Z,97974.98
2018-02-13T23:28:37.268Z,97969.97
2018-02-13T23:31:05.012Z,97972.19
2018-02-13T23:33:32.469Z,97970.38
2018-02-13T23:36:00.323Z,97967.36
2018-02-13T23:38:28.037Z,97965.31
2018-02-13T23:40:55.488Z,97966.79
2018-02-13T23:43:22.953Z,97958.61
2018-02-13T23:45:50.713Z,97956.98
2018-02-13T23:48:18.169Z,97957.14
2018-02-13T23:50:45.634Z,97962.30
2018-02-13T23:53:13.389Z,97958.09
2018-02-13T23:55:40.837Z,97960.08
2018-02-13T23:58:08.298Z,97954.04
